sensor_id;sensor_type;location;lat;lon;timestamp;temperature;humidity
16879;DHT22;8556;52.218;9.884;2024-03-23T00:55:55;7.30;99.90
16879;DHT22;8556;52.218;9.884;2024-03-23T00:58:22;7.30;99.90
16879;DHT22;8556;52.218;9.884;2024-03-23T01:00:48;7.30;99.90
16879;DHT22;8556;52.218;9.884;2024-03-23T01:03:15;7.30;99.90
16879;DHT22;8556;52.218;9.884;2024-03-23T01:05:40;7.30;99.90
16879;DHT22;8556;52.218;9.884;2024-03-23T01:08:07;7.20;99.90
16879;DHT22;8556;52.218;9.884;2024-03-23T01:10:33;7.10;99.90
16879;DHT22;8556;52.218;9.884;2024-03-23T01:13:01;7.10;99.90
16879;DHT22;8556;52.218;9.884;2024-03-23T01:15:27;7.00;99.90
16879;DHT22;8556;52.218;9.884;2024-03-23T01:17:54;7.00;99.90
16879;DHT22;8556;52.218;9.884;2024-03-23T01:20:20;7.00;99.90
16879;DHT22;8556;52.218;9.884;2024-03-23T01:22:47;7.00;99.90
16879;DHT22;8556;52.218;9.884;2024-03-23T01:25:13;7.10;99.90
16879;DHT22;8556;52.218;9.884;2024-03-23T01:27:40;7.10;99.90
16879;DHT22;8556;52.218;9.884;2024-03-23T01:30:08;7.10;99.90
16879;DHT22;8556;52.218;9.884;2024-03-23T01:32:35;7.10;99.90
16879;DHT22;8556;52.218;9.884;2024-03-23T01:35:01;6.90;99.90
16879;DHT22;8556;52.218;9.884;2024-03-23T01:37:29;6.80;99.90
16879;DHT22;8556;52.218;9.884;2024-03-23T01:39:55;6.90;99.90
16879;DHT22;8556;52.218;9.884;2024-03-23T01:42:22;6.80;99.90
16879;DHT22;8556;52.218;9.884;2024-03-23T01:44:48;7.00;99.90
16879;DHT22;8556;52.218;9.884;2024-03-23T01:47:16;7.00;99.90
16879;DHT22;8556;52.218;9.884;2024-03-23T01:49:43;7.00;99.90
16879;DHT22;8556;52.218;9.884;2024-03-23T01:52:10;7.00;99.90
16879;DHT22;8556;52.218;9.884;2024-03-23T01:54:36;6.90;99.90
16879;DHT22;8556;52.218;9.884;2024-03-23T01:57:03;6.90;99.90
16879;DHT22;8556;52.218;9.884;2024-03-23T01:59:30;6.90;99.90
16879;DHT22;8556;52.218;9.884;2024-03-23T02:01:57;6.90;99.90
16879;DHT22;8556;52.218;9.884;2024-03-23T02:04:24;6.90;99.90
16879;DHT22;8556;52.218;9.884;2024-03-23T02:06:51;6.80;99.90
16879;DHT22;8556;52.218;9.884;2024-03-23T02:09:17;6.80;99.90
16879;DHT22;8556;52.218;9.884;2024-03-23T02:11:44;6.80;99.90
16879;DHT22;8556;52.218;9.884;2024-03-23T02:14:11;6.80;99.90
16879;DHT22;8556;52.218;9.884;2024-03-23T02:16:38;6.90;99.90
16879;DHT22;8556;52.218;9.884;2024-03-23T02:19:03;6.80;99.90
16879;DHT22;8556;52.218;9.884;2024-03-23T02:21:32;6.70;99.90
16879;DHT22;8556;52.218;9.884;2024-03-23T02:24:00;6.60;99.90
16879;DHT22;8556;52.218;9.884;2024-03-23T02:26:27;6.70;99.90
16879;DHT22;8556;52.218;9.884;2024-03-23T02:28:53;6.80;99.90
16879;DHT22;8556;52.218;9.884;2024-03-23T02:31:20;6.80;99.90
16879;DHT22;8556;52.218;9.884;2024-03-23T02:33:46;6.70;99.90
16879;DHT22;8556;52.218;9.884;2024-03-23T02:36:13;6.70;99.90
16879;DHT22;8556;52.218;9.884;2024-03-23T02:38:38;6.70;99.90
16879;DHT22;8556;52.218;9.884;2024-03-23T02:41:07;6.60;99.90
16879;DHT22;8556;52.218;9.884;2024-03-23T02:43:33;6.50;99.90
16879;DHT22;8556;52.218;9.884;2024-03-23T02:46:00;6.70;99.90
16879;DHT22;8556;52.218;9.884;2024-03-23T02:48:28;6.60;99.90
16879;DHT22;8556;52.218;9.884;2024-03-23T02:50:54;6.50;99.90
16879;DHT22;8556;52.218;9.884;2024-03-23T02:53:21;6.50;99.90
16879;DHT22;8556;52.218;9.884;2024-03-23T02:55:47;6.60;99.90
16879;DHT22;8556;52.218;9.884;2024-03-23T02:58:15;6.60;99.90
16879;DHT22;8556;52.218;9.884;2024-03-23T03:00:41;6.60;99.90
16879;DHT22;8556;52.218;9.884;2024-03-23T03:03:08;6.50;99.90
16879;DHT22;8556;52.218;9.884;2024-03-23T03:05:34;6.50;99.90
16879;DHT22;8556;52.218;9.884;2024-03-23T03:08:01;6.50;99.90
16879;DHT22;8556;52.218;9.884;2024-03-23T03:10:27;6.40;99.90
16879;DHT22;8556;52.218;9.884;2024-03-23T03:12:54;6.50;99.90
16879;DHT22;8556;52.218;9.884;2024-03-23T03:15:21;6.50;99.90
16879;DHT22;8556;52.218;9.884;2024-03-23T03:17:48;6.50;99.90
16879;DHT22;8556;52.218;9.884;2024-03-23T03:20:14;6.60;99.90
16879;DHT22;8556;52.218;9.884;2024-03-23T03:22:43;6.60;99.90
16879;DHT22;8556;52.218;9.884;2024-03-23T03:25:09;6.60;99.90
16879;DHT22;8556;52.218;9.884;2024-03-23T03:27:36;6.70;99.90
16879;DHT22;8556;52.218;9.884;2024-03-23T03:30:02;6.60;99.90
16879;DHT22;8556;52.218;9.884;2024-03-23T03:32:32;6.50;99.90
16879;DHT22;8556;52.218;9.884;2024-03-23T03:34:58;6.60;99.90
16879;DHT22;8556;52.218;9.884;2024-03-23T03:37:25;6.80;99.90
16879;DHT22;8556;52.218;9.884;2024-03-23T03:39:51;6.80;99.90
16879;DHT22;8556;52.218;9.884;2024-03-23T03:42:18;6.70;99.90
16879;DHT22;8556;52.218;9.884;2024-03-23T03:44:44;6.70;99.90
16879;DHT22;8556;52.218;9.884;2024-03-23T03:47:11;6.80;99.90
16879;DHT22;8556;52.218;9.884;2024-03-23T03:49:38;6.80;99.90
16879;DHT22;8556;52.218;9.884;2024-03-23T03:52:05;6.80;99.90
16879;DHT22;8556;52.218;9.884;2024-03-23T03:54:32;6.70;99.90
16879;DHT22;8556;52.218;9.884;2024-03-23T03:56:59;6.70;99.90
16879;DHT22;8556;52.218;9.884;2024-03-23T03:59:26;6.80;99.90
16879;DHT22;8556;52.218;9.884;2024-03-23T04:01:53;6.70;99.90
16879;DHT22;8556;52.218;9.884;2024-03-23T04:04:19;6.70;99.90
16879;DHT22;8556;52.218;9.884;2024-03-23T04:06:47;6.60;99.90
16879;DHT22;8556;52.218;9.884;2024-03-23T04:09:13;6.60;99.90
16879;DHT22;8556;52.218;9.884;2024-03-23T04:11:40;6.60;99.90
16879;DHT22;8556;52.218;9.884;2024-03-23T04:14:06;6.60;99.90
16879;DHT22;8556;52.218;9.884;2024-03-23T04:16:34;6.60;99.90
16879;DHT22;8556;52.218;9.884;2024-03-23T04:19:00;6.60;99.90
16879;DHT22;8556;52.218;9.884;2024-03-23T04:21:27;6.60;99.90
16879;DHT22;8556;52.218;9.884;2024-03-23T04:23:54;6.50;99.90
16879;DHT22;8556;52.218;9.884;2024-03-23T04:26:21;6.50;99.90
16879;DHT22;8556;52.218;9.884;2024-03-23T04:28:47;6.50;99.90
16879;DHT22;8556;52.218;9.884;2024-03-23T04:31:14;6.50;99.90
16879;DHT22;8556;52.218;9.884;2024-03-23T04:33:40;6.50;99.90
16879;DHT22;8556;52.218;9.884;2024-03-23T04:36:07;6.50;99.90
16879;DHT22;8556;52.218;9.884;2024-03-23T04:38:33;6.60;99.90
16879;DHT22;8556;52.218;9.884;2024-03-23T04:41:01;6.60;99.90
16879;DHT22;8556;52.218;9.884;2024-03-23T04:43:28;6.50;99.90
16879;DHT22;8556;52.218;9.884;2024-03-23T04:45:55;6.60;99.90
16879;DHT22;8556;52.218;9.884;2024-03-23T04:48:23;6.50;99.90
16879;DHT22;8556;52.218;9.884;2024-03-23T04:50:55;6.50;99.90
16879;DHT22;8556;52.218;9.884;2024-03-23T04:53:23;6.50;99.90
16879;DHT22;8556;52.218;9.884;2024-03-23T04:55:53;6.50;99.90
16879;DHT22;8556;52.218;9.884;2024-03-23T04:58:21;6.40;99.90
16879;DHT22;8556;52.218;9.884;2024-03-23T05:00:52;6.50;99.90
16879;DHT22;8556;52.218;9.884;2024-03-23T05:03:18;6.40;99.90
16879;DHT22;8556;52.218;9.884;2024-03-23T05:05:46;6.50;99.90
16879;DHT22;8556;52.218;9.884;2024-03-23T05:08:12;6.40;99.90
16879;DHT22;8556;52.218;9.884;2024-03-23T05:10:39;6.40;99.90
16879;DHT22;8556;52.218;9.884;2024-03-23T05:13:06;6.40;99.90
16879;DHT22;8556;52.218;9.884;2024-03-23T05:15:34;6.40;99.90
16879;DHT22;8556;52.218;9.884;2024-03-23T05:18:01;6.40;99.90
16879;DHT22;8556;52.218;9.884;2024-03-23T05:20:28;6.40;99.90
16879;DHT22;8556;52.218;9.884;2024-03-23T05:22:55;6.40;99.90
16879;DHT22;8556;52.218;9.884;2024-03-23T05:25:22;6.30;99.90
16879;DHT22;8556;52.218;9.884;2024-03-23T05:27:48;6.40;99.90
16879;DHT22;8556;52.218;9.884;2024-03-23T05:30:15;6.40;99.90
16879;DHT22;8556;52.218;9.884;2024-03-23T05:32:43;6.50;99.90
16879;DHT22;8556;52.218;9.884;2024-03-23T05:35:10;6.40;99.90
16879;DHT22;8556;52.218;9.884;2024-03-23T05:37:36;6.60;99.90
16879;DHT22;8556;52.218;9.884;2024-03-23T05:40:04;6.40;99.90
16879;DHT22;8556;52.218;9.884;2024-03-23T05:42:30;6.50;99.90
16879;DHT22;8556;52.218;9.884;2024-03-23T05:44:57;6.40;99.90
16879;DHT22;8556;52.218;9.884;2024-03-23T05:47:23;6.30;99.90
16879;DHT22;8556;52.218;9.884;2024-03-23T05:49:51;6.30;99.90
16879;DHT22;8556;52.218;9.884;2024-03-23T05:52:18;6.10;99.90
16879;DHT22;8556;52.218;9.884;2024-03-23T05:54:46;6.00;99.90
16879;DHT22;8556;52.218;9.884;2024-03-23T05:57:12;6.10;99.90
16879;DHT22;8556;52.218;9.884;2024-03-23T05:59:39;6.10;99.90
16879;DHT22;8556;52.218;9.884;2024-03-23T06:02:05;6.20;99.90
16879;DHT22;8556;52.218;9.884;2024-03-23T06:04:32;6.10;99.90
16879;DHT22;8556;52.218;9.884;2024-03-23T06:07:00;6.10;99.90
16879;DHT22;8556;52.218;9.884;2024-03-23T06:09:27;6.00;99.90
16879;DHT22;8556;52.218;9.884;2024-03-23T06:11:57;6.00;99.90
16879;DHT22;8556;52.218;9.884;2024-03-23T06:14:23;6.00;99.90
16879;DHT22;8556;52.218;9.884;2024-03-23T06:16:50;6.10;99.90
16879;DHT22;8556;52.218;9.884;2024-03-23T06:19:16;6.10;99.90
16879;DHT22;8556;52.218;9.884;2024-03-23T06:21:43;6.10;99.90
16879;DHT22;8556;52.218;9.884;2024-03-23T06:24:11;6.20;99.90
16879;DHT22;8556;52.218;9.884;2024-03-23T06:26:37;6.20;99.90
16879;DHT22;8556;52.218;9.884;2024-03-23T06:29:03;6.30;99.90
16879;DHT22;8556;52.218;9.884;2024-03-23T06:31:31;6.30;99.90
16879;DHT22;8556;52.218;9.884;2024-03-23T06:33:57;6.30;99.90
16879;DHT22;8556;52.218;9.884;2024-03-23T06:36:24;6.20;99.90
16879;DHT22;8556;52.218;9.884;2024-03-23T06:38:50;6.10;99.90
16879;DHT22;8556;52.218;9.884;2024-03-23T06:41:19;6.20;99.90
16879;DHT22;8556;52.218;9.884;2024-03-23T06:43:45;6.20;99.90
16879;DHT22;8556;52.218;9.884;2024-03-23T06:46:12;6.30;99.90
16879;DHT22;8556;52.218;9.884;2024-03-23T06:48:38;6.30;99.90
16879;DHT22;8556;52.218;9.884;2024-03-23T06:51:05;6.20;99.90
16879;DHT22;8556;52.218;9.884;2024-03-23T06:53:32;6.10;99.90
16879;DHT22;8556;52.218;9.884;2024-03-23T06:55:59;6.20;99.90
16879;DHT22;8556;52.218;9.884;2024-03-23T06:58:28;6.20;99.90
16879;DHT22;8556;52.218;9.884;2024-03-23T07:00:54;6.20;99.90
16879;DHT22;8556;52.218;9.884;2024-03-23T07:03:20;6.20;99.90
16879;DHT22;8556;52.218;9.884;2024-03-23T07:05:48;6.20;99.90
16879;DHT22;8556;52.218;9.884;2024-03-23T07:08:13;6.10;99.90
16879;DHT22;8556;52.218;9.884;2024-03-23T07:10:46;6.20;99.90
16879;DHT22;8556;52.218;9.884;2024-03-23T07:13:12;6.20;99.90
16879;DHT22;8556;52.218;9.884;2024-03-23T07:15:41;6.20;99.90
16879;DHT22;8556;52.218;9.884;2024-03-23T07:18:07;6.20;99.90
16879;DHT22;8556;52.218;9.884;2024-03-23T07:20:34;6.10;99.90
16879;DHT22;8556;52.218;9.884;2024-03-23T07:23:00;6.20;99.90
16879;DHT22;8556;52.218;9.884;2024-03-23T07:25:27;6.30;99.90
16879;DHT22;8556;52.218;9.884;2024-03-23T07:27:54;6.40;99.90
16879;DHT22;8556;52.218;9.884;2024-03-23T07:30:21;6.40;99.90
16879;DHT22;8556;52.218;9.884;2024-03-23T07:32:49;6.40;99.90
16879;DHT22;8556;52.218;9.884;2024-03-23T07:35:16;6.50;99.90
16879;DHT22;8556;52.218;9.884;2024-03-23T07:37:42;6.50;99.90
16879;DHT22;8556;52.218;9.884;2024-03-23T07:40:10;6.50;99.90
16879;DHT22;8556;52.218;9.884;2024-03-23T07:42:37;6.60;99.90
16879;DHT22;8556;52.218;9.884;2024-03-23T07:45:05;6.60;99.90
16879;DHT22;8556;52.218;9.884;2024-03-23T07:47:31;6.70;99.90
16879;DHT22;8556;52.218;9.884;2024-03-23T07:49:59;6.90;99.90
16879;DHT22;8556;52.218;9.884;2024-03-23T07:52:28;6.80;99.90
16879;DHT22;8556;52.218;9.884;2024-03-23T07:54:55;6.80;99.90
16879;DHT22;8556;52.218;9.884;2024-03-23T07:57:21;6.80;99.90
16879;DHT22;8556;52.218;9.884;2024-03-23T07:59:48;6.80;99.90
16879;DHT22;8556;52.218;9.884;2024-03-23T08:02:14;6.80;99.90
16879;DHT22;8556;52.218;9.884;2024-03-23T08:04:40;6.70;99.90
16879;DHT22;8556;52.218;9.884;2024-03-23T08:07:08;6.70;99.90
16879;DHT22;8556;52.218;9.884;2024-03-23T08:09:35;6.70;99.90
16879;DHT22;8556;52.218;9.884;2024-03-23T08:12:01;6.60;99.90
16879;DHT22;8556;52.218;9.884;2024-03-23T08:14:28;6.70;99.90
16879;DHT22;8556;52.218;9.884;2024-03-23T08:16:54;6.70;99.90
16879;DHT22;8556;52.218;9.884;2024-03-23T08:19:21;6.80;99.90
16879;DHT22;8556;52.218;9.884;2024-03-23T08:21:47;6.80;99.90
16879;DHT22;8556;52.218;9.884;2024-03-23T08:24:17;6.90;99.90
16879;DHT22;8556;52.218;9.884;2024-03-23T08:26:43;7.00;99.90
16879;DHT22;8556;52.218;9.884;2024-03-23T08:29:09;7.10;99.90
16879;DHT22;8556;52.218;9.884;2024-03-23T08:31:35;7.20;99.90
16879;DHT22;8556;52.218;9.884;2024-03-23T08:34:02;7.30;99.90
16879;DHT22;8556;52.218;9.884;2024-03-23T08:36:28;7.30;99.90
16879;DHT22;8556;52.218;9.884;2024-03-23T08:38:56;7.40;99.90
16879;DHT22;8556;52.218;9.884;2024-03-23T08:41:23;7.50;99.90
16879;DHT22;8556;52.218;9.884;2024-03-23T08:43:51;7.70;99.90
16879;DHT22;8556;52.218;9.884;2024-03-23T08:46:17;7.80;99.90
16879;DHT22;8556;52.218;9.884;2024-03-23T08:48:45;8.10;99.90
16879;DHT22;8556;52.218;9.884;2024-03-23T08:51:12;8.20;99.90
16879;DHT22;8556;52.218;9.884;2024-03-23T08:53:40;8.20;1.00
16879;DHT22;8556;52.218;9.884;2024-03-23T08:56:07;8.50;1.00
16879;DHT22;8556;52.218;9.884;2024-03-23T08:58:36;8.70;1.00
16879;DHT22;8556;52.218;9.884;2024-03-23T09:01:04;9.10;99.90
16879;DHT22;8556;52.218;9.884;2024-03-23T09:03:32;9.20;1.00
16879;DHT22;8556;52.218;9.884;2024-03-23T09:05:58;9.20;48.00
16879;DHT22;8556;52.218;9.884;2024-03-23T09:08:25;9.70;1.00
16879;DHT22;8556;52.218;9.884;2024-03-23T09:10:52;9.70;99.90
16879;DHT22;8556;52.218;9.884;2024-03-23T09:13:19;9.40;99.90
16879;DHT22;8556;52.218;9.884;2024-03-23T09:15:50;9.30;1.00
16879;DHT22;8556;52.218;9.884;2024-03-23T09:18:20;9.40;1.00
16879;DHT22;8556;52.218;9.884;2024-03-23T09:20:46;9.10;1.00
16879;DHT22;8556;52.218;9.884;2024-03-23T09:23:12;8.70;1.00
16879;DHT22;8556;52.218;9.884;2024-03-23T09:25:38;8.50;1.00
16879;DHT22;8556;52.218;9.884;2024-03-23T09:28:06;8.40;1.00
16879;DHT22;8556;52.218;9.884;2024-03-23T09:30:34;8.40;1.00
16879;DHT22;8556;52.218;9.884;2024-03-23T09:33:02;8.80;1.00
16879;DHT22;8556;52.218;9.884;2024-03-23T09:35:28;9.30;1.00
16879;DHT22;8556;52.218;9.884;2024-03-23T09:37:55;9.80;1.00
16879;DHT22;8556;52.218;9.884;2024-03-23T09:40:22;10.10;1.00
16879;DHT22;8556;52.218;9.884;2024-03-23T09:42:51;9.80;99.90
16879;DHT22;8556;52.218;9.884;2024-03-23T09:45:20;9.80;1.00
16879;DHT22;8556;52.218;9.884;2024-03-23T09:47:48;9.70;1.00
16879;DHT22;8556;52.218;9.884;2024-03-23T09:50:16;9.60;1.00
16879;DHT22;8556;52.218;9.884;2024-03-23T09:52:43;9.30;1.00
16879;DHT22;8556;52.218;9.884;2024-03-23T09:55:11;9.10;1.00
16879;DHT22;8556;52.218;9.884;2024-03-23T09:57:39;8.90;1.00
16879;DHT22;8556;52.218;9.884;2024-03-23T10:00:06;8.80;1.00
16879;DHT22;8556;52.218;9.884;2024-03-23T10:02:34;8.70;1.00
16879;DHT22;8556;52.218;9.884;2024-03-23T10:05:00;8.60;1.00
16879;DHT22;8556;52.218;9.884;2024-03-23T10:07:28;8.40;99.90
16879;DHT22;8556;52.218;9.884;2024-03-23T10:09:54;8.60;99.90
16879;DHT22;8556;52.218;9.884;2024-03-23T10:12:24;9.40;99.90
16879;DHT22;8556;52.218;9.884;2024-03-23T10:14:50;10.00;99.90
16879;DHT22;8556;52.218;9.884;2024-03-23T10:17:18;10.20;99.90
16879;DHT22;8556;52.218;9.884;2024-03-23T10:19:44;10.40;1.00
16879;DHT22;8556;52.218;9.884;2024-03-23T10:22:16;10.10;1.00
16879;DHT22;8556;52.218;9.884;2024-03-23T10:24:44;9.70;1.00
16879;DHT22;8556;52.218;9.884;2024-03-23T10:27:15;9.50;1.00
16879;DHT22;8556;52.218;9.884;2024-03-23T10:29:42;9.30;1.00
16879;DHT22;8556;52.218;9.884;2024-03-23T10:32:10;9.80;1.00
16879;DHT22;8556;52.218;9.884;2024-03-23T10:34:36;10.40;1.00
16879;DHT22;8556;52.218;9.884;2024-03-23T10:37:04;10.90;1.00
16879;DHT22;8556;52.218;9.884;2024-03-23T10:39:35;11.30;1.00
16879;DHT22;8556;52.218;9.884;2024-03-23T10:42:07;11.20;1.00
16879;DHT22;8556;52.218;9.884;2024-03-23T10:44:33;11.20;1.00
16879;DHT22;8556;52.218;9.884;2024-03-23T10:47:01;11.50;99.90
16879;DHT22;8556;52.218;9.884;2024-03-23T10:49:29;11.30;99.90
16879;DHT22;8556;52.218;9.884;2024-03-23T10:51:59;11.10;99.90
16879;DHT22;8556;52.218;9.884;2024-03-23T10:54:26;11.00;99.90
16879;DHT22;8556;52.218;9.884;2024-03-23T10:56:57;10.40;99.90
16879;DHT22;8556;52.218;9.884;2024-03-23T10:59:27;9.50;99.90
16879;DHT22;8556;52.218;9.884;2024-03-23T11:01:56;8.90;99.90
16879;DHT22;8556;52.218;9.884;2024-03-23T11:04:33;8.70;1.00
16879;DHT22;8556;52.218;9.884;2024-03-23T11:07:00;8.80;1.00
16879;DHT22;8556;52.218;9.884;2024-03-23T11:09:39;9.00;1.00
16879;DHT22;8556;52.218;9.884;2024-03-23T11:12:29;9.20;1.00
16879;DHT22;8556;52.218;9.884;2024-03-23T11:15:01;9.30;1.00
16879;DHT22;8556;52.218;9.884;2024-03-23T11:17:28;10.00;1.00
16879;DHT22;8556;52.218;9.884;2024-03-23T11:19:56;10.30;1.00
16879;DHT22;8556;52.218;9.884;2024-03-23T11:22:42;10.50;1.00
16879;DHT22;8556;52.218;9.884;2024-03-23T11:25:17;10.70;1.00
16879;DHT22;8556;52.218;9.884;2024-03-23T11:27:44;11.00;1.00
16879;DHT22;8556;52.218;9.884;2024-03-23T11:30:15;11.10;1.00
16879;DHT22;8556;52.218;9.884;2024-03-23T11:32:42;11.00;99.90
16879;DHT22;8556;52.218;9.884;2024-03-23T11:35:09;10.50;99.90
16879;DHT22;8556;52.218;9.884;2024-03-23T11:37:36;10.20;99.90
16879;DHT22;8556;52.218;9.884;2024-03-23T11:40:19;9.00;99.90
16879;DHT22;8556;52.218;9.884;2024-03-23T11:42:45;7.90;99.90
16879;DHT22;8556;52.218;9.884;2024-03-23T11:45:14;7.40;99.90
16879;DHT22;8556;52.218;9.884;2024-03-23T11:47:41;7.70;99.90
16879;DHT22;8556;52.218;9.884;2024-03-23T11:50:09;8.10;1.00
16879;DHT22;8556;52.218;9.884;2024-03-23T11:52:36;9.00;1.00
16879;DHT22;8556;52.218;9.884;2024-03-23T11:55:06;9.10;1.00
16879;DHT22;8556;52.218;9.884;2024-03-23T11:57:34;8.90;1.00
16879;DHT22;8556;52.218;9.884;2024-03-23T12:00:01;8.70;99.90
16879;DHT22;8556;52.218;9.884;2024-03-23T12:02:28;9.00;1.00
16879;DHT22;8556;52.218;9.884;2024-03-23T12:04:55;9.00;1.00
16879;DHT22;8556;52.218;9.884;2024-03-23T12:07:21;9.60;1.00
16879;DHT22;8556;52.218;9.884;2024-03-23T12:10:03;9.60;1.00
16879;DHT22;8556;52.218;9.884;2024-03-23T12:12:29;9.30;99.90
16879;DHT22;8556;52.218;9.884;2024-03-23T12:15:03;9.00;1.00
16879;DHT22;8556;52.218;9.884;2024-03-23T12:17:32;8.30;1.00
16879;DHT22;8556;52.218;9.884;2024-03-23T12:20:00;7.40;1.00
16879;DHT22;8556;52.218;9.884;2024-03-23T12:22:26;6.90;99.90
16879;DHT22;8556;52.218;9.884;2024-03-23T12:24:55;6.90;1.00
16879;DHT22;8556;52.218;9.884;2024-03-23T12:27:21;6.60;1.00
16879;DHT22;8556;52.218;9.884;2024-03-23T12:29:48;6.40;99.90
16879;DHT22;8556;52.218;9.884;2024-03-23T12:32:14;7.10;99.90
16879;DHT22;8556;52.218;9.884;2024-03-23T12:34:43;7.80;1.00
16879;DHT22;8556;52.218;9.884;2024-03-23T12:37:09;8.30;1.00
16879;DHT22;8556;52.218;9.884;2024-03-23T12:39:36;8.60;1.00
16879;DHT22;8556;52.218;9.884;2024-03-23T12:42:02;8.30;99.90
16879;DHT22;8556;52.218;9.884;2024-03-23T12:44:29;8.40;1.00
16879;DHT22;8556;52.218;9.884;2024-03-23T12:46:56;8.10;99.90
16879;DHT22;8556;52.218;9.884;2024-03-23T12:49:23;7.90;99.90
16879;DHT22;8556;52.218;9.884;2024-03-23T12:51:55;7.90;1.00
16879;DHT22;8556;52.218;9.884;2024-03-23T12:54:23;7.80;99.90
16879;DHT22;8556;52.218;9.884;2024-03-23T12:56:49;7.70;99.90
16879;DHT22;8556;52.218;9.884;2024-03-23T12:59:16;7.40;1.00
16879;DHT22;8556;52.218;9.884;2024-03-23T13:01:44;7.20;1.00
16879;DHT22;8556;52.218;9.884;2024-03-23T13:04:11;6.60;99.90
16879;DHT22;8556;52.218;9.884;2024-03-23T13:06:37;6.20;1.00
16879;DHT22;8556;52.218;9.884;2024-03-23T13:09:06;6.10;1.00
16879;DHT22;8556;52.218;9.884;2024-03-23T13:11:32;6.10;16.60
16879;DHT22;8556;52.218;9.884;2024-03-23T13:13:59;6.10;99.90
16879;DHT22;8556;52.218;9.884;2024-03-23T13:16:25;6.20;1.00
16879;DHT22;8556;52.218;9.884;2024-03-23T13:18:52;6.60;1.00
16879;DHT22;8556;52.218;9.884;2024-03-23T13:21:18;6.80;1.00
16879;DHT22;8556;52.218;9.884;2024-03-23T13:23:47;7.10;1.00
16879;DHT22;8556;52.218;9.884;2024-03-23T13:26:17;7.40;1.00
16879;DHT22;8556;52.218;9.884;2024-03-23T13:28:44;7.50;99.90
16879;DHT22;8556;52.218;9.884;2024-03-23T13:31:10;7.90;1.00
16879;DHT22;8556;52.218;9.884;2024-03-23T13:33:37;7.80;1.00
16879;DHT22;8556;52.218;9.884;2024-03-23T13:36:03;7.80;1.00
16879;DHT22;8556;52.218;9.884;2024-03-23T13:38:30;7.80;1.00
16879;DHT22;8556;52.218;9.884;2024-03-23T13:40:58;7.70;1.00
16879;DHT22;8556;52.218;9.884;2024-03-23T13:43:28;7.70;1.00
16879;DHT22;8556;52.218;9.884;2024-03-23T13:45:55;7.80;1.00
16879;DHT22;8556;52.218;9.884;2024-03-23T13:48:24;8.00;1.00
16879;DHT22;8556;52.218;9.884;2024-03-23T13:50:57;8.40;1.00
16879;DHT22;8556;52.218;9.884;2024-03-23T13:53:24;8.50;1.00
16879;DHT22;8556;52.218;9.884;2024-03-23T13:55:50;8.60;99.90
16879;DHT22;8556;52.218;9.884;2024-03-23T13:58:17;8.50;99.90
16879;DHT22;8556;52.218;9.884;2024-03-23T14:00:44;8.60;99.90
16879;DHT22;8556;52.218;9.884;2024-03-23T14:03:12;8.90;99.90
16879;DHT22;8556;52.218;9.884;2024-03-23T14:05:38;9.10;99.90
16879;DHT22;8556;52.218;9.884;2024-03-23T14:08:06;9.00;99.90
16879;DHT22;8556;52.218;9.884;2024-03-23T14:10:32;8.70;1.00
16879;DHT22;8556;52.218;9.884;2024-03-23T14:12:59;8.60;1.00
16879;DHT22;8556;52.218;9.884;2024-03-23T14:15:25;8.40;1.00
16879;DHT22;8556;52.218;9.884;2024-03-23T14:17:54;8.40;1.00
16879;DHT22;8556;52.218;9.884;2024-03-23T14:20:20;8.30;1.00
16879;DHT22;8556;52.218;9.884;2024-03-23T14:22:47;8.00;1.00
16879;DHT22;8556;52.218;9.884;2024-03-23T14:25:13;7.70;99.90
16879;DHT22;8556;52.218;9.884;2024-03-23T14:27:40;7.70;1.00
16879;DHT22;8556;52.218;9.884;2024-03-23T14:30:07;7.50;99.90
16879;DHT22;8556;52.218;9.884;2024-03-23T14:32:34;7.50;1.00
16879;DHT22;8556;52.218;9.884;2024-03-23T14:35:01;7.50;99.90
16879;DHT22;8556;52.218;9.884;2024-03-23T14:37:29;7.60;99.90
16879;DHT22;8556;52.218;9.884;2024-03-23T14:39:55;6.90;99.90
16879;DHT22;8556;52.218;9.884;2024-03-23T14:42:23;6.40;1.00
16879;DHT22;8556;52.218;9.884;2024-03-23T14:44:49;6.00;1.00
16879;DHT22;8556;52.218;9.884;2024-03-23T14:47:16;5.90;1.00
16879;DHT22;8556;52.218;9.884;2024-03-23T14:49:43;5.80;1.00
16879;DHT22;8556;52.218;9.884;2024-03-23T14:52:14;5.80;1.00
16879;DHT22;8556;52.218;9.884;2024-03-23T14:54:40;5.90;1.00
16879;DHT22;8556;52.218;9.884;2024-03-23T14:57:07;6.00;1.00
16879;DHT22;8556;52.218;9.884;2024-03-23T14:59:34;6.20;99.90
16879;DHT22;8556;52.218;9.884;2024-03-23T15:02:01;6.60;99.90
16879;DHT22;8556;52.218;9.884;2024-03-23T15:04:27;6.90;1.00
16879;DHT22;8556;52.218;9.884;2024-03-23T15:06:54;7.20;1.00
16879;DHT22;8556;52.218;9.884;2024-03-23T15:09:21;7.60;1.00
16879;DHT22;8556;52.218;9.884;2024-03-23T15:11:48;7.80;1.00
16879;DHT22;8556;52.218;9.884;2024-03-23T15:14:14;7.70;99.90
16879;DHT22;8556;52.218;9.884;2024-03-23T15:16:43;7.60;99.90
16879;DHT22;8556;52.218;9.884;2024-03-23T15:19:09;7.50;99.90
16879;DHT22;8556;52.218;9.884;2024-03-23T15:21:36;7.70;99.90
16879;DHT22;8556;52.218;9.884;2024-03-23T15:24:03;7.90;99.90
16879;DHT22;8556;52.218;9.884;2024-03-23T15:26:31;8.10;99.90
16879;DHT22;8556;52.218;9.884;2024-03-23T15:28:58;8.00;99.90
16879;DHT22;8556;52.218;9.884;2024-03-23T15:31:36;7.90;99.90
16879;DHT22;8556;52.218;9.884;2024-03-23T15:34:03;7.80;99.90
16879;DHT22;8556;52.218;9.884;2024-03-23T15:36:30;7.80;99.90
16879;DHT22;8556;52.218;9.884;2024-03-23T15:38:56;7.60;99.90
16879;DHT22;8556;52.218;9.884;2024-03-23T15:41:23;7.70;99.90
16879;DHT22;8556;52.218;9.884;2024-03-23T15:43:51;7.70;99.90
16879;DHT22;8556;52.218;9.884;2024-03-23T15:46:19;7.60;1.00
16879;DHT22;8556;52.218;9.884;2024-03-23T15:48:45;7.70;1.00
16879;DHT22;8556;52.218;9.884;2024-03-23T15:51:14;7.60;99.90
16879;DHT22;8556;52.218;9.884;2024-03-23T15:53:40;7.40;99.90
16879;DHT22;8556;52.218;9.884;2024-03-23T15:56:08;7.40;1.00
16879;DHT22;8556;52.218;9.884;2024-03-23T15:58:35;7.40;1.00
16879;DHT22;8556;52.218;9.884;2024-03-23T16:01:04;7.30;1.00
16879;DHT22;8556;52.218;9.884;2024-03-23T16:03:31;7.20;99.90
16879;DHT22;8556;52.218;9.884;2024-03-23T16:06:00;7.10;99.90
16879;DHT22;8556;52.218;9.884;2024-03-23T16:08:26;7.10;99.90
16879;DHT22;8556;52.218;9.884;2024-03-23T16:10:54;7.00;99.90
16879;DHT22;8556;52.218;9.884;2024-03-23T16:13:20;6.40;1.00
16879;DHT22;8556;52.218;9.884;2024-03-23T16:15:54;6.00;48.60
16879;DHT22;8556;52.218;9.884;2024-03-23T16:18:22;5.80;99.90
16879;DHT22;8556;52.218;9.884;2024-03-23T16:20:54;5.80;1.00
16879;DHT22;8556;52.218;9.884;2024-03-23T16:23:20;5.70;1.00
16879;DHT22;8556;52.218;9.884;2024-03-23T16:25:48;5.90;72.50
16879;DHT22;8556;52.218;9.884;2024-03-23T16:28:23;6.00;11.20
16879;DHT22;8556;52.218;9.884;2024-03-23T16:30:56;6.30;1.00
16879;DHT22;8556;52.218;9.884;2024-03-23T16:33:24;6.50;1.00
16879;DHT22;8556;52.218;9.884;2024-03-23T16:35:58;6.70;1.00
16879;DHT22;8556;52.218;9.884;2024-03-23T16:38:24;6.80;1.00
16879;DHT22;8556;52.218;9.884;2024-03-23T16:40:55;6.90;1.00
16879;DHT22;8556;52.218;9.884;2024-03-23T16:43:22;6.90;1.00
16879;DHT22;8556;52.218;9.884;2024-03-23T16:45:56;6.90;99.90
16879;DHT22;8556;52.218;9.884;2024-03-23T16:48:25;6.80;99.90
16879;DHT22;8556;52.218;9.884;2024-03-23T16:50:53;6.80;1.00
16879;DHT22;8556;52.218;9.884;2024-03-23T16:53:19;6.70;1.00
16879;DHT22;8556;52.218;9.884;2024-03-23T16:55:46;6.60;1.00
16879;DHT22;8556;52.218;9.884;2024-03-23T16:58:12;6.60;1.00
16879;DHT22;8556;52.218;9.884;2024-03-23T17:00:39;6.50;1.00